sensor_id;sensor_type;location;lat;lon;timestamp;pressure;altitude;pressure_sealevel;temperature
11926;BMP180;6022;48.768;18.608;2023-01-06T00:02:09;98713.91;;;6.42
11926;BMP180;6022;48.768;18.608;2023-01-06T00:04:36;98713.34;;;6.36
11926;BMP180;6022;48.768;18.608;2023-01-06T00:07:03;98712.72;;;6.31
11926;BMP180;6022;48.768;18.608;2023-01-06T00:09:30;98714.56;;;6.28
11926;BMP180;6022;48.768;18.608;2023-01-06T00:12:00;98720.66;;;6.22
11926;BMP180;6022;48.768;18.608;2023-01-06T00:14:27;98719.41;;;6.12
11926;BMP180;6022;48.768;18.608;2023-01-06T00:16:54;98724.56;;;6.09
11926;BMP180;6022;48.768;18.608;2023-01-06T00:19:21;98723.69;;;6.10
11926;BMP180;6022;48.768;18.608;2023-01-06T00:21:52;98739.03;;;6.04
11926;BMP180;6022;48.768;18.608;2023-01-06T00:24:33;98735.63;;;6.05
11926;BMP180;6022;48.768;18.608;2023-01-06T00:27:31;98739.91;;;6.03
11926;BMP180;6022;48.768;18.608;2023-01-06T00:30:04;98742.44;;;6.03
11926;BMP180;6022;48.768;18.608;2023-01-06T00:32:51;98748.59;;;5.97
11926;BMP180;6022;48.768;18.608;2023-01-06T00:35:21;98753.06;;;5.90
11926;BMP180;6022;48.768;18.608;2023-01-06T00:38:33;98749.38;;;5.77
11926;BMP180;6022;48.768;18.608;2023-01-06T00:41:10;98756.25;;;5.74
11926;BMP180;6022;48.768;18.608;2023-01-06T00:43:57;98752.41;;;5.64
11926;BMP180;6022;48.768;18.608;2023-01-06T00:46:29;98754.03;;;5.65
11926;BMP180;6022;48.768;18.608;2023-01-06T00:48:57;98753.41;;;5.60
11926;BMP180;6022;48.768;18.608;2023-01-06T00:51:35;98759.31;;;5.59
11926;BMP180;6022;48.768;18.608;2023-01-06T00:54:30;98756.94;;;5.56
11926;BMP180;6022;48.768;18.608;2023-01-06T00:57:07;98766.00;;;5.60
11926;BMP180;6022;48.768;18.608;2023-01-06T00:59:35;98762.06;;;5.53
11926;BMP180;6022;48.768;18.608;2023-01-06T01:02:02;98758.78;;;5.51
11926;BMP180;6022;48.768;18.608;2023-01-06T01:04:30;98764.91;;;5.44
11926;BMP180;6022;48.768;18.608;2023-01-06T01:06:58;98767.66;;;5.38
11926;BMP180;6022;48.768;18.608;2023-01-06T01:09:31;98772.84;;;5.35
11926;BMP180;6022;48.768;18.608;2023-01-06T01:12:02;98773.22;;;5.25
11926;BMP180;6022;48.768;18.608;2023-01-06T01:14:51;98781.94;;;5.17
11926;BMP180;6022;48.768;18.608;2023-01-06T01:17:26;98783.69;;;5.15
11926;BMP180;6022;48.768;18.608;2023-01-06T01:19:55;98778.44;;;4.98
11926;BMP180;6022;48.768;18.608;2023-01-06T01:22:26;98781.81;;;4.97
11926;BMP180;6022;48.768;18.608;2023-01-06T01:24:54;98792.72;;;4.96
11926;BMP180;6022;48.768;18.608;2023-01-06T01:27:21;98785.53;;;4.87
11926;BMP180;6022;48.768;18.608;2023-01-06T01:29:48;98787.59;;;4.76
11926;BMP180;6022;48.768;18.608;2023-01-06T01:32:15;98788.66;;;4.69
11926;BMP180;6022;48.768;18.608;2023-01-06T01:34:50;98784.84;;;4.59
11926;BMP180;6022;48.768;18.608;2023-01-06T01:37:28;98777.50;;;4.53
11926;BMP180;6022;48.768;18.608;2023-01-06T01:39:57;98787.66;;;4.50
11926;BMP180;6022;48.768;18.608;2023-01-06T01:42:24;98784.50;;;4.46
11926;BMP180;6022;48.768;18.608;2023-01-06T01:47:42;98773.78;;;4.41
11926;BMP180;6022;48.768;18.608;2023-01-06T01:50:27;98782.94;;;4.42
11926;BMP180;6022;48.768;18.608;2023-01-06T01:53:12;98779.84;;;4.34
11926;BMP180;6022;48.768;18.608;2023-01-06T01:55:41;98785.00;;;4.31
11926;BMP180;6022;48.768;18.608;2023-01-06T01:58:16;98786.81;;;4.26
11926;BMP180;6022;48.768;18.608;2023-01-06T02:00:46;98788.72;;;4.19
11926;BMP180;6022;48.768;18.608;2023-01-06T02:03:14;98788.66;;;4.21
11926;BMP180;6022;48.768;18.608;2023-01-06T02:05:47;98781.13;;;4.21
11926;BMP180;6022;48.768;18.608;2023-01-06T02:08:48;98787.88;;;4.19
11926;BMP180;6022;48.768;18.608;2023-01-06T02:11:16;98775.75;;;4.07
11926;BMP180;6022;48.768;18.608;2023-01-06T02:13:44;98776.47;;;4.11
11926;BMP180;6022;48.768;18.608;2023-01-06T02:34:26;98782.13;;;3.91
11926;BMP180;6022;48.768;18.608;2023-01-06T02:40:19;98781.91;;;3.72
11926;BMP180;6022;48.768;18.608;2023-01-06T02:45:48;98788.59;;;3.73
11926;BMP180;6022;48.768;18.608;2023-01-06T02:48:29;98789.47;;;3.70
11926;BMP180;6022;48.768;18.608;2023-01-06T02:54:39;98795.69;;;3.59
11926;BMP180;6022;48.768;18.608;2023-01-06T03:02:38;98803.91;;;3.64
11926;BMP180;6022;48.768;18.608;2023-01-06T03:05:11;98795.09;;;3.51
11926;BMP180;6022;48.768;18.608;2023-01-06T03:07:40;98797.59;;;3.51
11926;BMP180;6022;48.768;18.608;2023-01-06T03:10:10;98796.97;;;3.44
11926;BMP180;6022;48.768;18.608;2023-01-06T03:13:26;98801.66;;;3.55
11926;BMP180;6022;48.768;18.608;2023-01-06T03:15:54;98803.25;;;3.57
11926;BMP180;6022;48.768;18.608;2023-01-06T03:18:22;98812.19;;;3.66
11926;BMP180;6022;48.768;18.608;2023-01-06T03:20:52;98803.09;;;3.63
11926;BMP180;6022;48.768;18.608;2023-01-06T03:23:23;98808.91;;;3.64
11926;BMP180;6022;48.768;18.608;2023-01-06T03:25:50;98816.72;;;3.55
11926;BMP180;6022;48.768;18.608;2023-01-06T03:28:17;98814.19;;;3.55
11926;BMP180;6022;48.768;18.608;2023-01-06T03:34:26;98813.06;;;3.38
11926;BMP180;6022;48.768;18.608;2023-01-06T03:40:19;98810.28;;;3.18
11926;BMP180;6022;48.768;18.608;2023-01-06T03:43:48;98814.63;;;3.13
11926;BMP180;6022;48.768;18.608;2023-01-06T03:45:55;98812.06;;;3.14
11926;BMP180;6022;48.768;18.608;2023-01-06T03:51:40;98816.28;;;3.12
11926;BMP180;6022;48.768;18.608;2023-01-06T03:57:26;98837.28;;;3.08
11926;BMP180;6022;48.768;18.608;2023-01-06T04:00:08;98831.59;;;3.03
11926;BMP180;6022;48.768;18.608;2023-01-06T04:02:38;98843.03;;;3.12
11926;BMP180;6022;48.768;18.608;2023-01-06T04:05:14;98840.84;;;3.01
11926;BMP180;6022;48.768;18.608;2023-01-06T04:07:43;98846.63;;;3.03
11926;BMP180;6022;48.768;18.608;2023-01-06T04:10:13;98842.41;;;3.05
11926;BMP180;6022;48.768;18.608;2023-01-06T04:12:40;98835.84;;;3.01
11926;BMP180;6022;48.768;18.608;2023-01-06T04:15:09;98829.84;;;3.07
11926;BMP180;6022;48.768;18.608;2023-01-06T04:17:38;98848.88;;;3.12
11926;BMP180;6022;48.768;18.608;2023-01-06T04:20:10;98853.94;;;3.11
11926;BMP180;6022;48.768;18.608;2023-01-06T04:22:38;98859.63;;;3.16
11926;BMP180;6022;48.768;18.608;2023-01-06T04:25:07;98856.09;;;3.23
11926;BMP180;6022;48.768;18.608;2023-01-06T04:27:35;98851.03;;;3.26
11926;BMP180;6022;48.768;18.608;2023-01-06T04:30:04;98853.47;;;3.27
11926;BMP180;6022;48.768;18.608;2023-01-06T04:32:31;98857.63;;;3.28
11926;BMP180;6022;48.768;18.608;2023-01-06T04:34:59;98866.88;;;3.26
11926;BMP180;6022;48.768;18.608;2023-01-06T04:37:26;98860.34;;;3.21
11926;BMP180;6022;48.768;18.608;2023-01-06T04:39:53;98860.75;;;3.06
11926;BMP180;6022;48.768;18.608;2023-01-06T04:42:20;98868.19;;;3.09
11926;BMP180;6022;48.768;18.608;2023-01-06T04:44:47;98872.53;;;3.02
11926;BMP180;6022;48.768;18.608;2023-01-06T04:47:15;98873.44;;;3.00
11926;BMP180;6022;48.768;18.608;2023-01-06T04:49:42;98867.66;;;2.98
11926;BMP180;6022;48.768;18.608;2023-01-06T04:52:09;98870.97;;;2.99
11926;BMP180;6022;48.768;18.608;2023-01-06T04:54:37;98870.16;;;2.98
11926;BMP180;6022;48.768;18.608;2023-01-06T04:57:04;98882.41;;;3.08
11926;BMP180;6022;48.768;18.608;2023-01-06T04:59:31;98888.91;;;3.15
11926;BMP180;6022;48.768;18.608;2023-01-06T05:01:58;98888.91;;;3.15
11926;BMP180;6022;48.768;18.608;2023-01-06T05:04:25;98889.72;;;3.16
11926;BMP180;6022;48.768;18.608;2023-01-06T05:06:55;98900.72;;;3.10
11926;BMP180;6022;48.768;18.608;2023-01-06T05:09:23;98902.91;;;2.92
11926;BMP180;6022;48.768;18.608;2023-01-06T05:11:50;98911.56;;;2.81
11926;BMP180;6022;48.768;18.608;2023-01-06T05:14:17;98906.66;;;2.75
11926;BMP180;6022;48.768;18.608;2023-01-06T05:16:47;98908.31;;;2.76
11926;BMP180;6022;48.768;18.608;2023-01-06T05:19:14;98911.69;;;2.75
11926;BMP180;6022;48.768;18.608;2023-01-06T05:21:41;98916.78;;;2.72
11926;BMP180;6022;48.768;18.608;2023-01-06T05:24:09;98910.06;;;2.74
11926;BMP180;6022;48.768;18.608;2023-01-06T05:26:36;98918.41;;;2.73
11926;BMP180;6022;48.768;18.608;2023-01-06T05:29:04;98914.16;;;2.76
11926;BMP180;6022;48.768;18.608;2023-01-06T05:31:31;98923.81;;;2.90
11926;BMP180;6022;48.768;18.608;2023-01-06T05:33:58;98917.97;;;2.91
11926;BMP180;6022;48.768;18.608;2023-01-06T05:36:25;98925.50;;;2.89
11926;BMP180;6022;48.768;18.608;2023-01-06T05:38:53;98919.59;;;2.92
11926;BMP180;6022;48.768;18.608;2023-01-06T05:41:21;98926.16;;;2.96
11926;BMP180;6022;48.768;18.608;2023-01-06T05:43:48;98937.06;;;2.95
11926;BMP180;6022;48.768;18.608;2023-01-06T05:46:15;98936.19;;;2.96
11926;BMP180;6022;48.768;18.608;2023-01-06T05:48:42;98924.56;;;2.93
11926;BMP180;6022;48.768;18.608;2023-01-06T05:51:13;98932.09;;;2.93
11926;BMP180;6022;48.768;18.608;2023-01-06T05:53:44;98934.63;;;2.92
11926;BMP180;6022;48.768;18.608;2023-01-06T05:56:17;98942.22;;;2.90
11926;BMP180;6022;48.768;18.608;2023-01-06T05:58:48;98942.47;;;2.80
11926;BMP180;6022;48.768;18.608;2023-01-06T06:01:26;98946.06;;;2.70
11926;BMP180;6022;48.768;18.608;2023-01-06T06:03:54;98945.28;;;2.68
11926;BMP180;6022;48.768;18.608;2023-01-06T06:06:24;98951.28;;;2.61
11926;BMP180;6022;48.768;18.608;2023-01-06T06:08:51;98955.44;;;2.62
11926;BMP180;6022;48.768;18.608;2023-01-06T06:11:19;98953.00;;;2.59
11926;BMP180;6022;48.768;18.608;2023-01-06T06:13:51;98964.03;;;2.51
11926;BMP180;6022;48.768;18.608;2023-01-06T06:16:23;98968.06;;;2.56
11926;BMP180;6022;48.768;18.608;2023-01-06T06:18:56;98967.41;;;2.50
11926;BMP180;6022;48.768;18.608;2023-01-06T06:21:28;98973.34;;;2.46
11926;BMP180;6022;48.768;18.608;2023-01-06T06:23:58;98984.97;;;2.48
11926;BMP180;6022;48.768;18.608;2023-01-06T06:26:26;98981.69;;;2.46
11926;BMP180;6022;48.768;18.608;2023-01-06T06:28:53;98992.56;;;2.45
11926;BMP180;6022;48.768;18.608;2023-01-06T06:31:27;98980.88;;;2.46
11926;BMP180;6022;48.768;18.608;2023-01-06T06:33:58;98985.13;;;2.41
11926;BMP180;6022;48.768;18.608;2023-01-06T06:36:27;98989.19;;;2.46
11926;BMP180;6022;48.768;18.608;2023-01-06T06:38:55;98985.06;;;2.44
11926;BMP180;6022;48.768;18.608;2023-01-06T06:41:24;98979.22;;;2.43
11926;BMP180;6022;48.768;18.608;2023-01-06T06:43:54;98990.91;;;2.44
11926;BMP180;6022;48.768;18.608;2023-01-06T06:46:24;98997.84;;;2.32
11926;BMP180;6022;48.768;18.608;2023-01-06T06:48:51;99008.72;;;2.31
11926;BMP180;6022;48.768;18.608;2023-01-06T06:51:20;99016.91;;;2.37
11926;BMP180;6022;48.768;18.608;2023-01-06T06:53:49;99023.41;;;2.46
11926;BMP180;6022;48.768;18.608;2023-01-06T06:56:19;99039.25;;;2.46
11926;BMP180;6022;48.768;18.608;2023-01-06T06:58:47;99033.44;;;2.46
11926;BMP180;6022;48.768;18.608;2023-01-06T07:01:19;99036.78;;;2.45
11926;BMP180;6022;48.768;18.608;2023-01-06T07:03:47;99042.97;;;2.30
11926;BMP180;6022;48.768;18.608;2023-01-06T07:06:21;99044.44;;;2.37
11926;BMP180;6022;48.768;18.608;2023-01-06T07:08:50;99046.91;;;2.40
11926;BMP180;6022;48.768;18.608;2023-01-06T07:11:18;99044.25;;;2.46
11926;BMP180;6022;48.768;18.608;2023-01-06T07:13:48;99041.66;;;2.51
11926;BMP180;6022;48.768;18.608;2023-01-06T07:16:16;99040.13;;;2.45
11926;BMP180;6022;48.768;18.608;2023-01-06T07:18:44;99046.97;;;2.37
11926;BMP180;6022;48.768;18.608;2023-01-06T07:21:11;99057.75;;;2.39
11926;BMP180;6022;48.768;18.608;2023-01-06T07:23:41;99053.38;;;2.49
11926;BMP180;6022;48.768;18.608;2023-01-06T07:26:11;99055.63;;;2.62
11926;BMP180;6022;48.768;18.608;2023-01-06T07:28:41;99042.84;;;2.71
11926;BMP180;6022;48.768;18.608;2023-01-06T07:31:08;99044.97;;;2.89
11926;BMP180;6022;48.768;18.608;2023-01-06T07:33:39;99053.38;;;3.19
11926;BMP180;6022;48.768;18.608;2023-01-06T07:36:07;99054.00;;;3.60
11926;BMP180;6022;48.768;18.608;2023-01-06T07:38:35;99055.91;;;3.82
11926;BMP180;6022;48.768;18.608;2023-01-06T07:41:02;99053.16;;;3.91
11926;BMP180;6022;48.768;18.608;2023-01-06T07:43:29;99052.22;;;3.95
11926;BMP180;6022;48.768;18.608;2023-01-06T07:45:57;99052.03;;;4.01
11926;BMP180;6022;48.768;18.608;2023-01-06T07:48:25;99045.28;;;4.03
11926;BMP180;6022;48.768;18.608;2023-01-06T07:50:52;99050.88;;;4.13
11926;BMP180;6022;48.768;18.608;2023-01-06T07:53:19;99064.94;;;4.18
11926;BMP180;6022;48.768;18.608;2023-01-06T07:55:54;99065.94;;;4.13
11926;BMP180;6022;48.768;18.608;2023-01-06T07:58:21;99074.06;;;3.90
11926;BMP180;6022;48.768;18.608;2023-01-06T08:00:52;99077.09;;;3.73
11926;BMP180;6022;48.768;18.608;2023-01-06T08:03:19;99076.31;;;3.71
11926;BMP180;6022;48.768;18.608;2023-01-06T08:05:47;99087.03;;;3.75
11926;BMP180;6022;48.768;18.608;2023-01-06T08:08:14;99081.34;;;3.69
11926;BMP180;6022;48.768;18.608;2023-01-06T08:10:42;99082.72;;;3.80
11926;BMP180;6022;48.768;18.608;2023-01-06T08:13:10;99090.06;;;3.88
11926;BMP180;6022;48.768;18.608;2023-01-06T08:15:38;99075.41;;;3.73
11926;BMP180;6022;48.768;18.608;2023-01-06T08:18:07;99082.41;;;3.61
11926;BMP180;6022;48.768;18.608;2023-01-06T08:20:34;99079.84;;;3.62
11926;BMP180;6022;48.768;18.608;2023-01-06T08:23:02;99068.38;;;3.54
11926;BMP180;6022;48.768;18.608;2023-01-06T08:25:29;99077.50;;;3.56
11926;BMP180;6022;48.768;18.608;2023-01-06T08:27:57;99076.31;;;3.71
11926;BMP180;6022;48.768;18.608;2023-01-06T08:30:29;99076.81;;;3.81
11926;BMP180;6022;48.768;18.608;2023-01-06T08:32:59;99077.19;;;3.98
11926;BMP180;6022;48.768;18.608;2023-01-06T08:35:27;99079.72;;;3.98
11926;BMP180;6022;48.768;18.608;2023-01-06T08:37:54;99091.19;;;4.07
11926;BMP180;6022;48.768;18.608;2023-01-06T08:40:22;99089.25;;;4.16
11926;BMP180;6022;48.768;18.608;2023-01-06T08:42:49;99088.06;;;4.29
11926;BMP180;6022;48.768;18.608;2023-01-06T08:45:18;99088.56;;;4.40
11926;BMP180;6022;48.768;18.608;2023-01-06T08:47:46;99093.25;;;4.51
11926;BMP180;6022;48.768;18.608;2023-01-06T08:50:16;99089.63;;;4.60
11926;BMP180;6022;48.768;18.608;2023-01-06T08:52:43;99091.88;;;4.69
11926;BMP180;6022;48.768;18.608;2023-01-06T08:55:19;99096.06;;;4.70
11926;BMP180;6022;48.768;18.608;2023-01-06T08:57:59;99092.44;;;4.78
11926;BMP180;6022;48.768;18.608;2023-01-06T09:00:27;99080.25;;;4.92
11926;BMP180;6022;48.768;18.608;2023-01-06T09:02:54;99090.69;;;5.07
11926;BMP180;6022;48.768;18.608;2023-01-06T09:05:21;99090.09;;;5.25
11926;BMP180;6022;48.768;18.608;2023-01-06T09:07:51;99089.00;;;5.33
11926;BMP180;6022;48.768;18.608;2023-01-06T09:10:21;99082.94;;;5.39
11926;BMP180;6022;48.768;18.608;2023-01-06T09:12:49;99090.69;;;5.57
11926;BMP180;6022;48.768;18.608;2023-01-06T09:15:19;99086.63;;;5.79
11926;BMP180;6022;48.768;18.608;2023-01-06T09:17:49;99081.81;;;5.97
11926;BMP180;6022;48.768;18.608;2023-01-06T09:20:24;99087.00;;;6.15
11926;BMP180;6022;48.768;18.608;2023-01-06T09:22:54;99083.16;;;6.28
11926;BMP180;6022;48.768;18.608;2023-01-06T09:25:23;99091.84;;;6.44
11926;BMP180;6022;48.768;18.608;2023-01-06T09:27:50;99096.75;;;6.47
11926;BMP180;6022;48.768;18.608;2023-01-06T09:30:20;99086.13;;;6.39
11926;BMP180;6022;48.768;18.608;2023-01-06T09:32:50;99078.47;;;6.42
11926;BMP180;6022;48.768;18.608;2023-01-06T09:35:18;99076.16;;;6.59
11926;BMP180;6022;48.768;18.608;2023-01-06T09:37:56;99067.22;;;6.72
11926;BMP180;6022;48.768;18.608;2023-01-06T09:45:15;99067.06;;;6.97
11926;BMP180;6022;48.768;18.608;2023-01-06T09:47:17;99072.41;;;6.90
11926;BMP180;6022;48.768;18.608;2023-01-06T09:49:52;99068.88;;;6.94
11926;BMP180;6022;48.768;18.608;2023-01-06T09:52:33;99070.78;;;7.09
11926;BMP180;6022;48.768;18.608;2023-01-06T09:55:10;99063.44;;;7.04
11926;BMP180;6022;48.768;18.608;2023-01-06T09:58:10;99053.69;;;6.95
11926;BMP180;6022;48.768;18.608;2023-01-06T10:00:48;99054.03;;;6.86
11926;BMP180;6022;48.768;18.608;2023-01-06T10:03:24;99048.13;;;6.87
11926;BMP180;6022;48.768;18.608;2023-01-06T10:13:25;99043.75;;;7.12
11926;BMP180;6022;48.768;18.608;2023-01-06T10:16:38;99041.22;;;7.12
11926;BMP180;6022;48.768;18.608;2023-01-06T10:19:56;99036.69;;;7.20
11926;BMP180;6022;48.768;18.608;2023-01-06T10:25:16;99032.28;;;7.25
11926;BMP180;6022;48.768;18.608;2023-01-06T10:28:01;99027.63;;;7.36
11926;BMP180;6022;48.768;18.608;2023-01-06T10:30:38;99029.19;;;7.38
11926;BMP180;6022;48.768;18.608;2023-01-06T10:33:27;99033.72;;;7.50
11926;BMP180;6022;48.768;18.608;2023-01-06T10:35:56;99034.50;;;7.52
11926;BMP180;6022;48.768;18.608;2023-01-06T10:38:36;99037.84;;;7.53
11926;BMP180;6022;48.768;18.608;2023-01-06T10:41:26;99024.72;;;7.45
11926;BMP180;6022;48.768;18.608;2023-01-06T10:43:57;99017.88;;;7.47
11926;BMP180;6022;48.768;18.608;2023-01-06T10:46:34;99023.19;;;7.60
11926;BMP180;6022;48.768;18.608;2023-01-06T10:49:06;99022.31;;;7.61
11926;BMP180;6022;48.768;18.608;2023-01-06T10:51:41;99033.78;;;7.68
11926;BMP180;6022;48.768;18.608;2023-01-06T10:54:27;99025.50;;;7.85
11926;BMP180;6022;48.768;18.608;2023-01-06T10:57:08;99023.13;;;8.00
11926;BMP180;6022;48.768;18.608;2023-01-06T11:02:52;99023.38;;;8.14
11926;BMP180;6022;48.768;18.608;2023-01-06T11:05:33;99025.03;;;8.15
11926;BMP180;6022;48.768;18.608;2023-01-06T11:10:42;99011.66;;;8.31
11926;BMP180;6022;48.768;18.608;2023-01-06T11:13:30;99007.00;;;8.40
11926;BMP180;6022;48.768;18.608;2023-01-06T11:16:16;99002.41;;;8.48
11926;BMP180;6022;48.768;18.608;2023-01-06T11:19:19;99005.25;;;8.59
11926;BMP180;6022;48.768;18.608;2023-01-06T11:21:48;98998.72;;;8.72
11926;BMP180;6022;48.768;18.608;2023-01-06T11:24:23;98996.19;;;8.72
11926;BMP180;6022;48.768;18.608;2023-01-06T11:26:59;99006.78;;;8.80
11926;BMP180;6022;48.768;18.608;2023-01-06T11:29:35;98991.25;;;8.87
11926;BMP180;6022;48.768;18.608;2023-01-06T11:32:23;98998.97;;;8.84
11926;BMP180;6022;48.768;18.608;2023-01-06T11:35:04;98992.38;;;8.99
11926;BMP180;6022;48.768;18.608;2023-01-06T11:37:41;98988.94;;;9.00
11926;BMP180;6022;48.768;18.608;2023-01-06T11:40:25;98995.19;;;9.09
11926;BMP180;6022;48.768;18.608;2023-01-06T11:43:05;98993.31;;;9.13
11926;BMP180;6022;48.768;18.608;2023-01-06T11:45:52;98986.41;;;9.16
11926;BMP180;6022;48.768;18.608;2023-01-06T11:48:31;98987.03;;;9.21
11926;BMP180;6022;48.768;18.608;2023-01-06T11:51:04;98981.03;;;9.22
11926;BMP180;6022;48.768;18.608;2023-01-06T11:53:31;98980.16;;;9.23
11926;BMP180;6022;48.768;18.608;2023-01-06T11:56:17;98969.66;;;9.14
11926;BMP180;6022;48.768;18.608;2023-01-06T11:59:04;98969.75;;;9.12
11926;BMP180;6022;48.768;18.608;2023-01-06T12:01:56;98963.88;;;9.12
11926;BMP180;6022;48.768;18.608;2023-01-06T12:04:55;98969.22;;;9.23
11926;BMP180;6022;48.768;18.608;2023-01-06T12:07:37;98959.63;;;9.12
11926;BMP180;6022;48.768;18.608;2023-01-06T12:10:16;98959.09;;;9.06
11926;BMP180;6022;48.768;18.608;2023-01-06T12:12:44;98954.56;;;9.12
11926;BMP180;6022;48.768;18.608;2023-01-06T12:15:14;98961.09;;;9.16
11926;BMP180;6022;48.768;18.608;2023-01-06T12:17:52;98963.94;;;9.10
11926;BMP180;6022;48.768;18.608;2023-01-06T12:20:35;98959.91;;;9.06
11926;BMP180;6022;48.768;18.608;2023-01-06T12:23:11;98961.53;;;9.07
11926;BMP180;6022;48.768;18.608;2023-01-06T12:25:45;98945.47;;;9.08
11926;BMP180;6022;48.768;18.608;2023-01-06T12:28:38;98950.53;;;9.08
11926;BMP180;6022;48.768;18.608;2023-01-06T12:33:53;98951.88;;;8.99
11926;BMP180;6022;48.768;18.608;2023-01-06T12:42:42;98948.31;;;9.03
11926;BMP180;6022;48.768;18.608;2023-01-06T12:45:29;98948.97;;;9.06
11926;BMP180;6022;48.768;18.608;2023-01-06T12:48:10;98949.63;;;9.09
11926;BMP180;6022;48.768;18.608;2023-01-06T12:50:53;98948.00;;;9.08
11926;BMP180;6022;48.768;18.608;2023-01-06T12:53:47;98945.41;;;9.10
11926;BMP180;6022;48.768;18.608;2023-01-06T13:02:53;98929.38;;;9.26
11926;BMP180;6022;48.768;18.608;2023-01-06T13:08:20;98924.31;;;9.26
11926;BMP180;6022;48.768;18.608;2023-01-06T13:13:58;98913.97;;;9.31
11926;BMP180;6022;48.768;18.608;2023-01-06T13:16:55;98911.50;;;9.29
11926;BMP180;6022;48.768;18.608;2023-01-06T13:19:40;98903.03;;;9.30
11926;BMP180;6022;48.768;18.608;2023-01-06T13:28:04;98887.56;;;9.19
11926;BMP180;6022;48.768;18.608;2023-01-06T13:39:31;98910.81;;;8.94
11926;BMP180;6022;48.768;18.608;2023-01-06T13:42:05;98910.81;;;8.94
11926;BMP180;6022;48.768;18.608;2023-01-06T13:44:37;98911.59;;;8.94
11926;BMP180;6022;48.768;18.608;2023-01-06T13:47:14;98911.69;;;8.93
11926;BMP180;6022;48.768;18.608;2023-01-06T13:49:42;98920.03;;;8.95
11926;BMP180;6022;48.768;18.608;2023-01-06T13:52:23;98918.16;;;8.98
11926;BMP180;6022;48.768;18.608;2023-01-06T14:07:56;98916.91;;;8.90
11926;BMP180;6022;48.768;18.608;2023-01-06T14:10:40;98905.44;;;8.83
11926;BMP180;6022;48.768;18.608;2023-01-06T14:13:55;98914.13;;;8.77
11926;BMP180;6022;48.768;18.608;2023-01-06T14:16:57;98915.19;;;8.73
11926;BMP180;6022;48.768;18.608;2023-01-06T14:19:38;98908.34;;;8.75
11926;BMP180;6022;48.768;18.608;2023-01-06T14:22:41;98890.69;;;8.74
11926;BMP180;6022;48.768;18.608;2023-01-06T14:25:23;98884.03;;;8.73
11926;BMP180;6022;48.768;18.608;2023-01-06T14:30:28;98895.94;;;8.71
11926;BMP180;6022;48.768;18.608;2023-01-06T14:33:04;98880.31;;;8.63
11926;BMP180;6022;48.768;18.608;2023-01-06T14:35:50;98886.25;;;8.62
11926;BMP180;6022;48.768;18.608;2023-01-06T14:41:27;98886.31;;;8.61
11926;BMP180;6022;48.768;18.608;2023-01-06T14:44:01;98901.59;;;8.59
11926;BMP180;6022;48.768;18.608;2023-01-06T14:46:40;98889.94;;;8.55
11926;BMP180;6022;48.768;18.608;2023-01-06T14:49:25;98891.91;;;8.50
11926;BMP180;6022;48.768;18.608;2023-01-06T14:51:57;98895.31;;;8.49
11926;BMP180;6022;48.768;18.608;2023-01-06T14:54:35;98891.34;;;8.44
11926;BMP180;6022;48.768;18.608;2023-01-06T14:57:23;98898.88;;;8.45
11926;BMP180;6022;48.768;18.608;2023-01-06T15:00:13;98903.34;;;8.40
11926;BMP180;6022;48.768;18.608;2023-01-06T15:02:52;98900.81;;;8.40
11926;BMP180;6022;48.768;18.608;2023-01-06T15:05:38;98896.50;;;8.42
11926;BMP180;6022;48.768;18.608;2023-01-06T15:10:45;98893.50;;;8.34
11926;BMP180;6022;48.768;18.608;2023-01-06T15:13:31;98899.59;;;8.30
11926;BMP180;6022;48.768;18.608;2023-01-06T15:16:23;98894.69;;;8.28
11926;BMP180;6022;48.768;18.608;2023-01-06T15:18:53;98885.47;;;8.27
11926;BMP180;6022;48.768;18.608;2023-01-06T15:21:22;98879.53;;;8.28
11926;BMP180;6022;48.768;18.608;2023-01-06T15:23:53;98888.00;;;8.27
11926;BMP180;6022;48.768;18.608;2023-01-06T15:26:31;98881.50;;;8.21
11926;BMP180;6022;48.768;18.608;2023-01-06T15:29:17;98877.38;;;8.20
11926;BMP180;6022;48.768;18.608;2023-01-06T15:31:47;98894.16;;;8.21
11926;BMP180;6022;48.768;18.608;2023-01-06T15:34:34;98883.22;;;8.21
11926;BMP180;6022;48.768;18.608;2023-01-06T15:37:06;98898.38;;;8.21
11926;BMP180;6022;48.768;18.608;2023-01-06T15:39:37;98894.44;;;8.15
11926;BMP180;6022;48.768;18.608;2023-01-06T15:42:06;98900.28;;;8.16
11926;BMP180;6022;48.768;18.608;2023-01-06T15:44:38;98901.03;;;8.18
11926;BMP180;6022;48.768;18.608;2023-01-06T15:49:56;98901.94;;;8.17
11926;BMP180;6022;48.768;18.608;2023-01-06T15:52:34;98907.69;;;8.20
11926;BMP180;6022;48.768;18.608;2023-01-06T15:55:06;98912.06;;;8.17
11926;BMP180;6022;48.768;18.608;2023-01-06T15:57:54;98907.28;;;8.11
11926;BMP180;6022;48.768;18.608;2023-01-06T16:03:25;98910.69;;;8.10
11926;BMP180;6022;48.768;18.608;2023-01-06T16:06:12;98907.38;;;8.08
11926;BMP180;6022;48.768;18.608;2023-01-06T16:08:41;98905.75;;;8.07
11926;BMP180;6022;48.768;18.608;2023-01-06T16:13:56;98911.22;;;7.98
11926;BMP180;6022;48.768;18.608;2023-01-06T16:16:34;98906.91;;;8.00
11926;BMP180;6022;48.768;18.608;2023-01-06T16:19:29;98911.22;;;7.98
11926;BMP180;6022;48.768;18.608;2023-01-06T16:22:01;98908.63;;;7.99
11926;BMP180;6022;48.768;18.608;2023-01-06T16:24:29;98910.53;;;7.94
11926;BMP180;6022;48.768;18.608;2023-01-06T16:27:02;98912.53;;;7.88
11926;BMP180;6022;48.768;18.608;2023-01-06T16:29:37;98901.69;;;7.86
11926;BMP180;6022;48.768;18.608;2023-01-06T16:32:43;98894.97;;;7.85
11926;BMP180;6022;48.768;18.608;2023-01-06T16:37:41;98892.34;;;7.88
11926;BMP180;6022;48.768;18.608;2023-01-06T16:40:11;98889.94;;;7.85
11926;BMP180;6022;48.768;18.608;2023-01-06T16:42:39;98901.81;;;7.83
11926;BMP180;6022;48.768;18.608;2023-01-06T16:47:55;98893.78;;;7.75
11926;BMP180;6022;48.768;18.608;2023-01-06T16:50:31;98898.81;;;7.75
11926;BMP180;6022;48.768;18.608;2023-01-06T16:53:19;98898.06;;;7.73
11926;BMP180;6022;48.768;18.608;2023-01-06T16:55:53;98895.53;;;7.73
11926;BMP180;6022;48.768;18.608;2023-01-06T16:58:24;98905.50;;;7.76
11926;BMP180;6022;48.768;18.608;2023-01-06T17:00:53;98902.97;;;7.76
11926;BMP180;6022;48.768;18.608;2023-01-06T17:03:28;98905.50;;;7.76
11926;BMP180;6022;48.768;18.608;2023-01-06T17:05:56;98910.41;;;7.79
11926;BMP180;6022;48.768;18.608;2023-01-06T17:08:30;98913.97;;;7.75
11926;BMP180;6022;48.768;18.608;2023-01-06T17:11:10;98923.59;;;7.67
11926;BMP180;6022;48.768;18.608;2023-01-06T17:13:38;98920.84;;;7.72
11926;BMP180;6022;48.768;18.608;2023-01-06T17:16:20;98916.69;;;7.71
11926;BMP180;6022;48.768;18.608;2023-01-06T17:19:02;98914.25;;;7.69
11926;BMP180;6022;48.768;18.608;2023-01-06T17:21:39;98920.16;;;7.68
11926;BMP180;6022;48.768;18.608;2023-01-06T17:24:20;98912.59;;;7.68